sensor_id;sensor_type;location;lat;lon;timestamp;P1;durP1;ratioP1;P2;durP2;ratioP2
9834;SDS011;69850;50.942;13.748;2023-12-20T00:02:40;3.22;;;2.78;;
9834;SDS011;69850;50.942;13.748;2023-12-20T00:06:05;3.95;;;3.08;;
9834;SDS011;69850;50.942;13.748;2023-12-20T00:09:25;4.63;;;2.88;;
9834;SDS011;69850;50.942;13.748;2023-12-20T00:12:46;3.28;;;2.78;;
9834;SDS011;69850;50.942;13.748;2023-12-20T00:16:09;3.83;;;2.70;;
9834;SDS011;69850;50.942;13.748;2023-12-20T00:19:30;4.38;;;2.97;;
9834;SDS011;69850;50.942;13.748;2023-12-20T00:22:50;3.83;;;2.88;;
9834;SDS011;69850;50.942;13.748;2023-12-20T00:26:11;3.83;;;3.17;;
9834;SDS011;69850;50.942;13.748;2023-12-20T00:29:31;3.78;;;3.05;;
9834;SDS011;69850;50.942;13.748;2023-12-20T00:32:52;3.30;;;3.00;;
9834;SDS011;69850;50.942;13.748;2023-12-20T00:36:12;4.70;;;3.40;;
9834;SDS011;69850;50.942;13.748;2023-12-20T00:39:33;4.70;;;3.13;;
9834;SDS011;69850;50.942;13.748;2023-12-20T00:42:54;5.40;;;3.28;;
9834;SDS011;69850;50.942;13.748;2023-12-20T00:46:14;4.40;;;3.25;;
9834;SDS011;69850;50.942;13.748;2023-12-20T00:49:35;4.47;;;3.22;;
9834;SDS011;69850;50.942;13.748;2023-12-20T00:52:55;3.55;;;2.80;;
9834;SDS011;69850;50.942;13.748;2023-12-20T00:56:16;3.63;;;3.03;;
9834;SDS011;69850;50.942;13.748;2023-12-20T00:59:37;3.42;;;2.63;;
9834;SDS011;69850;50.942;13.748;2023-12-20T01:02:57;3.47;;;2.65;;
9834;SDS011;69850;50.942;13.748;2023-12-20T01:06:18;2.65;;;2.13;;
9834;SDS011;69850;50.942;13.748;2023-12-20T01:09:39;2.50;;;2.10;;
9834;SDS011;69850;50.942;13.748;2023-12-20T01:13:01;2.47;;;2.05;;
9834;SDS011;69850;50.942;13.748;2023-12-20T01:16:22;3.35;;;2.40;;
9834;SDS011;69850;50.942;13.748;2023-12-20T01:19:42;2.42;;;2.00;;
9834;SDS011;69850;50.942;13.748;2023-12-20T01:23:03;2.80;;;2.03;;
9834;SDS011;69850;50.942;13.748;2023-12-20T01:26:24;2.78;;;2.20;;
9834;SDS011;69850;50.942;13.748;2023-12-20T01:29:44;2.80;;;2.20;;
9834;SDS011;69850;50.942;13.748;2023-12-20T01:33:05;2.80;;;2.13;;
9834;SDS011;69850;50.942;13.748;2023-12-20T01:36:26;2.70;;;1.90;;
9834;SDS011;69850;50.942;13.748;2023-12-20T01:39:47;2.30;;;1.90;;
9834;SDS011;69850;50.942;13.748;2023-12-20T01:43:08;2.42;;;1.85;;
9834;SDS011;69850;50.942;13.748;2023-12-20T01:46:29;2.03;;;1.83;;
9834;SDS011;69850;50.942;13.748;2023-12-20T01:49:50;1.88;;;1.70;;
9834;SDS011;69850;50.942;13.748;2023-12-20T01:53:11;2.58;;;1.90;;
9834;SDS011;69850;50.942;13.748;2023-12-20T01:56:32;2.00;;;1.80;;
9834;SDS011;69850;50.942;13.748;2023-12-20T01:59:55;2.55;;;1.63;;
9834;SDS011;69850;50.942;13.748;2023-12-20T02:03:16;2.30;;;1.80;;
9834;SDS011;69850;50.942;13.748;2023-12-20T02:06:37;2.53;;;1.80;;
9834;SDS011;69850;50.942;13.748;2023-12-20T02:09:58;2.78;;;1.70;;
9834;SDS011;69850;50.942;13.748;2023-12-20T02:13:18;2.08;;;1.60;;
9834;SDS011;69850;50.942;13.748;2023-12-20T02:16:39;2.17;;;1.70;;
9834;SDS011;69850;50.942;13.748;2023-12-20T02:20:01;1.88;;;1.67;;
9834;SDS011;69850;50.942;13.748;2023-12-20T02:23:22;1.98;;;1.50;;
9834;SDS011;69850;50.942;13.748;2023-12-20T02:26:43;3.55;;;1.80;;
9834;SDS011;69850;50.942;13.748;2023-12-20T02:30:04;1.75;;;1.60;;
9834;SDS011;69850;50.942;13.748;2023-12-20T02:33:25;1.75;;;1.60;;
9834;SDS011;69850;50.942;13.748;2023-12-20T02:36:46;1.67;;;1.30;;
9834;SDS011;69850;50.942;13.748;2023-12-20T02:40:06;3.28;;;1.30;;
9834;SDS011;69850;50.942;13.748;2023-12-20T02:43:28;1.50;;;1.40;;
9834;SDS011;69850;50.942;13.748;2023-12-20T02:46:50;1.33;;;1.15;;
9834;SDS011;69850;50.942;13.748;2023-12-20T02:50:10;1.83;;;1.38;;
9834;SDS011;69850;50.942;13.748;2023-12-20T02:53:31;1.30;;;1.20;;
9834;SDS011;69850;50.942;13.748;2023-12-20T02:56:51;1.13;;;1.00;;
9834;SDS011;69850;50.942;13.748;2023-12-20T03:00:12;2.20;;;1.10;;
9834;SDS011;69850;50.942;13.748;2023-12-20T03:03:33;1.15;;;1.00;;
9834;SDS011;69850;50.942;13.748;2023-12-20T03:06:54;1.23;;;1.13;;
9834;SDS011;69850;50.942;13.748;2023-12-20T03:10:14;0.98;;;0.98;;
9834;SDS011;69850;50.942;13.748;2023-12-20T03:13:35;1.52;;;1.00;;
9834;SDS011;69850;50.942;13.748;2023-12-20T03:16:56;0.80;;;0.80;;
9834;SDS011;69850;50.942;13.748;2023-12-20T03:20:16;1.10;;;1.00;;
9834;SDS011;69850;50.942;13.748;2023-12-20T03:23:37;1.20;;;1.10;;
9834;SDS011;69850;50.942;13.748;2023-12-20T03:26:57;0.80;;;0.80;;
9834;SDS011;69850;50.942;13.748;2023-12-20T03:30:18;1.38;;;0.85;;
9834;SDS011;69850;50.942;13.748;2023-12-20T03:33:39;2.25;;;0.70;;
9834;SDS011;69850;50.942;13.748;2023-12-20T03:36:59;0.98;;;0.90;;
9834;SDS011;69850;50.942;13.748;2023-12-20T03:40:20;0.95;;;0.80;;
9834;SDS011;69850;50.942;13.748;2023-12-20T03:43:42;0.70;;;0.60;;
9834;SDS011;69850;50.942;13.748;2023-12-20T03:47:03;0.70;;;0.70;;
9834;SDS011;69850;50.942;13.748;2023-12-20T03:50:23;1.10;;;0.90;;
9834;SDS011;69850;50.942;13.748;2023-12-20T03:53:44;0.80;;;0.70;;
9834;SDS011;69850;50.942;13.748;2023-12-20T03:57:04;0.70;;;0.70;;
9834;SDS011;69850;50.942;13.748;2023-12-20T04:00:25;0.50;;;0.50;;
9834;SDS011;69850;50.942;13.748;2023-12-20T04:03:46;0.70;;;0.70;;
9834;SDS011;69850;50.942;13.748;2023-12-20T04:07:06;0.80;;;0.70;;
9834;SDS011;69850;50.942;13.748;2023-12-20T04:10:27;0.60;;;0.60;;
9834;SDS011;69850;50.942;13.748;2023-12-20T04:13:48;0.70;;;0.70;;
9834;SDS011;69850;50.942;13.748;2023-12-20T04:17:08;0.80;;;0.80;;
9834;SDS011;69850;50.942;13.748;2023-12-20T04:20:29;0.98;;;0.90;;
9834;SDS011;69850;50.942;13.748;2023-12-20T04:23:50;0.90;;;0.90;;
9834;SDS011;69850;50.942;13.748;2023-12-20T04:27:10;1.00;;;0.90;;
9834;SDS011;69850;50.942;13.748;2023-12-20T04:30:31;0.88;;;0.88;;
9834;SDS011;69850;50.942;13.748;2023-12-20T04:33:52;0.85;;;0.85;;
9834;SDS011;69850;50.942;13.748;2023-12-20T04:37:12;1.02;;;0.90;;
9834;SDS011;69850;50.942;13.748;2023-12-20T04:40:33;1.00;;;1.00;;
9834;SDS011;69850;50.942;13.748;2023-12-20T04:43:53;1.13;;;1.00;;
9834;SDS011;69850;50.942;13.748;2023-12-20T04:47:14;1.20;;;1.10;;
9834;SDS011;69850;50.942;13.748;2023-12-20T04:50:35;1.02;;;1.00;;
9834;SDS011;69850;50.942;13.748;2023-12-20T04:53:55;0.98;;;0.90;;
9834;SDS011;69850;50.942;13.748;2023-12-20T04:57:16;1.30;;;1.00;;
9834;SDS011;69850;50.942;13.748;2023-12-20T05:00:36;1.05;;;1.00;;
9834;SDS011;69850;50.942;13.748;2023-12-20T05:03:57;1.35;;;1.10;;
9834;SDS011;69850;50.942;13.748;2023-12-20T05:07:18;0.98;;;0.95;;
9834;SDS011;69850;50.942;13.748;2023-12-20T05:10:38;1.10;;;1.00;;
9834;SDS011;69850;50.942;13.748;2023-12-20T05:14:00;1.13;;;1.02;;
9834;SDS011;69850;50.942;13.748;2023-12-20T05:17:21;1.80;;;1.25;;
9834;SDS011;69850;50.942;13.748;2023-12-20T05:20:41;2.13;;;1.20;;
9834;SDS011;69850;50.942;13.748;2023-12-20T05:24:02;1.25;;;1.15;;
9834;SDS011;69850;50.942;13.748;2023-12-20T05:27:23;2.90;;;1.00;;
9834;SDS011;69850;50.942;13.748;2023-12-20T05:30:44;1.00;;;1.00;;
9834;SDS011;69850;50.942;13.748;2023-12-20T05:34:04;1.20;;;1.10;;
9834;SDS011;69850;50.942;13.748;2023-12-20T05:37:25;1.20;;;1.10;;
9834;SDS011;69850;50.942;13.748;2023-12-20T05:40:45;1.40;;;1.10;;
9834;SDS011;69850;50.942;13.748;2023-12-20T05:44:06;0.98;;;0.93;;
9834;SDS011;69850;50.942;13.748;2023-12-20T05:47:27;0.85;;;0.85;;
9834;SDS011;69850;50.942;13.748;2023-12-20T05:50:47;1.00;;;1.00;;
9834;SDS011;69850;50.942;13.748;2023-12-20T05:54:09;1.80;;;1.05;;
9834;SDS011;69850;50.942;13.748;2023-12-20T05:57:29;0.70;;;0.70;;
9834;SDS011;69850;50.942;13.748;2023-12-20T06:00:50;0.75;;;0.75;;
9834;SDS011;69850;50.942;13.748;2023-12-20T06:04:11;0.70;;;0.70;;
9834;SDS011;69850;50.942;13.748;2023-12-20T06:07:31;0.65;;;0.63;;
9834;SDS011;69850;50.942;13.748;2023-12-20T06:10:52;0.75;;;0.75;;
9834;SDS011;69850;50.942;13.748;2023-12-20T06:14:12;2.67;;;1.50;;
9834;SDS011;69850;50.942;13.748;2023-12-20T06:17:33;0.68;;;0.65;;
9834;SDS011;69850;50.942;13.748;2023-12-20T06:20:55;1.00;;;1.00;;
9834;SDS011;69850;50.942;13.748;2023-12-20T06:24:15;0.68;;;0.63;;
9834;SDS011;69850;50.942;13.748;2023-12-20T06:27:36;0.65;;;0.65;;
9834;SDS011;69850;50.942;13.748;2023-12-20T06:30:56;0.82;;;0.82;;
9834;SDS011;69850;50.942;13.748;2023-12-20T06:34:17;0.73;;;0.70;;
9834;SDS011;69850;50.942;13.748;2023-12-20T06:37:38;1.23;;;0.80;;
9834;SDS011;69850;50.942;13.748;2023-12-20T06:41:02;1.45;;;0.90;;
9834;SDS011;69850;50.942;13.748;2023-12-20T06:44:23;0.80;;;0.75;;
9834;SDS011;69850;50.942;13.748;2023-12-20T06:47:43;0.75;;;0.75;;
9834;SDS011;69850;50.942;13.748;2023-12-20T06:51:05;0.90;;;0.80;;
9834;SDS011;69850;50.942;13.748;2023-12-20T06:54:26;1.65;;;0.98;;
9834;SDS011;69850;50.942;13.748;2023-12-20T06:57:46;1.60;;;0.98;;
9834;SDS011;69850;50.942;13.748;2023-12-20T07:01:11;1.38;;;1.20;;
9834;SDS011;69850;50.942;13.748;2023-12-20T07:04:38;1.35;;;1.25;;
9834;SDS011;69850;50.942;13.748;2023-12-20T07:07:59;0.73;;;0.73;;
9834;SDS011;69850;50.942;13.748;2023-12-20T07:11:20;0.98;;;0.90;;
9834;SDS011;69850;50.942;13.748;2023-12-20T07:14:41;1.42;;;1.00;;
9834;SDS011;69850;50.942;13.748;2023-12-20T07:18:02;3.90;;;1.40;;
9834;SDS011;69850;50.942;13.748;2023-12-20T07:21:23;1.85;;;1.17;;
9834;SDS011;69850;50.942;13.748;2023-12-20T07:24:43;2.72;;;2.42;;
9834;SDS011;69850;50.942;13.748;2023-12-20T07:28:04;3.75;;;2.42;;
9834;SDS011;69850;50.942;13.748;2023-12-20T07:31:25;1.67;;;1.50;;
9834;SDS011;69850;50.942;13.748;2023-12-20T07:34:46;2.95;;;1.75;;
9834;SDS011;69850;50.942;13.748;2023-12-20T07:38:07;2.28;;;1.98;;
9834;SDS011;69850;50.942;13.748;2023-12-20T07:41:28;2.03;;;1.83;;
9834;SDS011;69850;50.942;13.748;2023-12-20T07:44:49;2.55;;;2.35;;
9834;SDS011;69850;50.942;13.748;2023-12-20T07:48:09;4.18;;;2.42;;
9834;SDS011;69850;50.942;13.748;2023-12-20T07:51:30;4.20;;;2.72;;
9834;SDS011;69850;50.942;13.748;2023-12-20T07:54:50;3.85;;;2.40;;
9834;SDS011;69850;50.942;13.748;2023-12-20T07:58:11;3.72;;;2.55;;
9834;SDS011;69850;50.942;13.748;2023-12-20T08:01:31;3.28;;;2.47;;
9834;SDS011;69850;50.942;13.748;2023-12-20T08:04:52;6.63;;;2.65;;
9834;SDS011;69850;50.942;13.748;2023-12-20T08:08:13;3.67;;;2.55;;
9834;SDS011;69850;50.942;13.748;2023-12-20T08:11:33;3.42;;;2.47;;
9834;SDS011;69850;50.942;13.748;2023-12-20T08:14:54;3.78;;;2.00;;
9834;SDS011;69850;50.942;13.748;2023-12-20T08:18:15;4.80;;;2.10;;
9834;SDS011;69850;50.942;13.748;2023-12-20T08:21:35;3.83;;;1.90;;
9834;SDS011;69850;50.942;13.748;2023-12-20T08:24:56;3.50;;;2.30;;
9834;SDS011;69850;50.942;13.748;2023-12-20T08:28:16;2.08;;;1.63;;
9834;SDS011;69850;50.942;13.748;2023-12-20T08:31:37;4.90;;;2.10;;
9834;SDS011;69850;50.942;13.748;2023-12-20T08:34:59;2.08;;;1.88;;
9834;SDS011;69850;50.942;13.748;2023-12-20T08:38:20;3.53;;;1.55;;
9834;SDS011;69850;50.942;13.748;2023-12-20T08:41:40;4.00;;;1.88;;
9834;SDS011;69850;50.942;13.748;2023-12-20T08:45:01;3.33;;;1.80;;
9834;SDS011;69850;50.942;13.748;2023-12-20T08:48:24;3.25;;;1.38;;
9834;SDS011;69850;50.942;13.748;2023-12-20T08:51:45;3.88;;;1.30;;
9834;SDS011;69850;50.942;13.748;2023-12-20T08:55:05;2.30;;;1.27;;
9834;SDS011;69850;50.942;13.748;2023-12-20T08:58:27;2.30;;;1.20;;
9834;SDS011;69850;50.942;13.748;2023-12-20T09:01:48;5.57;;;2.90;;
9834;SDS011;69850;50.942;13.748;2023-12-20T09:05:14;4.43;;;1.80;;
9834;SDS011;69850;50.942;13.748;2023-12-20T09:08:35;3.13;;;1.10;;
9834;SDS011;69850;50.942;13.748;2023-12-20T09:11:55;1.42;;;0.65;;
9834;SDS011;69850;50.942;13.748;2023-12-20T09:15:16;3.47;;;1.20;;
9834;SDS011;69850;50.942;13.748;2023-12-20T09:18:37;2.78;;;1.35;;
9834;SDS011;69850;50.942;13.748;2023-12-20T09:21:57;5.68;;;0.88;;
9834;SDS011;69850;50.942;13.748;2023-12-20T09:25:18;3.13;;;1.08;;
9834;SDS011;69850;50.942;13.748;2023-12-20T09:28:38;3.78;;;1.48;;
9834;SDS011;69850;50.942;13.748;2023-12-20T09:32:00;5.78;;;1.30;;
9834;SDS011;69850;50.942;13.748;2023-12-20T09:35:21;8.23;;;1.75;;
9834;SDS011;69850;50.942;13.748;2023-12-20T09:38:42;4.30;;;1.40;;
9834;SDS011;69850;50.942;13.748;2023-12-20T09:42:03;2.38;;;1.15;;
9834;SDS011;69850;50.942;13.748;2023-12-20T09:45:24;2.60;;;1.33;;
9834;SDS011;69850;50.942;13.748;2023-12-20T09:48:45;2.03;;;1.23;;
9834;SDS011;69850;50.942;13.748;2023-12-20T09:52:06;2.17;;;0.80;;
9834;SDS011;69850;50.942;13.748;2023-12-20T09:55:28;4.53;;;1.55;;
9834;SDS011;69850;50.942;13.748;2023-12-20T09:58:50;3.67;;;1.40;;
9834;SDS011;69850;50.942;13.748;2023-12-20T10:02:12;3.47;;;1.20;;
9834;SDS011;69850;50.942;13.748;2023-12-20T10:05:35;2.17;;;1.17;;
9834;SDS011;69850;50.942;13.748;2023-12-20T10:08:55;2.92;;;1.02;;
9834;SDS011;69850;50.942;13.748;2023-12-20T10:12:16;4.18;;;1.20;;
9834;SDS011;69850;50.942;13.748;2023-12-20T10:15:37;4.53;;;1.27;;
9834;SDS011;69850;50.942;13.748;2023-12-20T10:18:59;1.58;;;0.80;;
9834;SDS011;69850;50.942;13.748;2023-12-20T10:22:21;3.83;;;1.30;;
9834;SDS011;69850;50.942;13.748;2023-12-20T10:25:42;6.55;;;1.67;;
9834;SDS011;69850;50.942;13.748;2023-12-20T10:29:03;4.43;;;1.52;;
9834;SDS011;69850;50.942;13.748;2023-12-20T10:32:27;3.13;;;1.40;;
9834;SDS011;69850;50.942;13.748;2023-12-20T10:35:48;3.30;;;1.52;;
9834;SDS011;69850;50.942;13.748;2023-12-20T10:39:09;4.03;;;1.77;;
9834;SDS011;69850;50.942;13.748;2023-12-20T10:42:31;5.30;;;1.63;;
9834;SDS011;69850;50.942;13.748;2023-12-20T10:45:53;4.55;;;1.40;;
9834;SDS011;69850;50.942;13.748;2023-12-20T10:49:14;3.40;;;1.40;;
9834;SDS011;69850;50.942;13.748;2023-12-20T10:52:35;3.47;;;1.35;;
9834;SDS011;69850;50.942;13.748;2023-12-20T10:55:56;3.90;;;1.52;;
9834;SDS011;69850;50.942;13.748;2023-12-20T10:59:21;6.15;;;1.70;;
9834;SDS011;69850;50.942;13.748;2023-12-20T11:02:43;4.93;;;1.60;;
9834;SDS011;69850;50.942;13.748;2023-12-20T11:06:13;6.47;;;1.52;;
9834;SDS011;69850;50.942;13.748;2023-12-20T11:17:29;8.40;;;1.45;;
9834;SDS011;69850;50.942;13.748;2023-12-20T11:20:49;4.07;;;1.40;;
9834;SDS011;69850;50.942;13.748;2023-12-20T11:24:10;3.70;;;1.50;;
9834;SDS011;69850;50.942;13.748;2023-12-20T11:27:30;4.32;;;1.52;;
9834;SDS011;69850;50.942;13.748;2023-12-20T11:30:56;3.72;;;1.35;;
9834;SDS011;69850;50.942;13.748;2023-12-20T11:34:19;3.83;;;1.35;;
9834;SDS011;69850;50.942;13.748;2023-12-20T11:37:40;3.35;;;1.40;;
9834;SDS011;69850;50.942;13.748;2023-12-20T11:41:06;3.67;;;1.40;;
9834;SDS011;69850;50.942;13.748;2023-12-20T11:44:27;5.80;;;1.60;;
9834;SDS011;69850;50.942;13.748;2023-12-20T11:47:51;3.75;;;1.30;;
9834;SDS011;69850;50.942;13.748;2023-12-20T11:51:13;4.57;;;1.63;;
9834;SDS011;69850;50.942;13.748;2023-12-20T11:54:34;4.57;;;1.33;;
9834;SDS011;69850;50.942;13.748;2023-12-20T11:57:55;4.13;;;1.58;;
9834;SDS011;69850;50.942;13.748;2023-12-20T12:01:16;6.07;;;1.50;;
9834;SDS011;69850;50.942;13.748;2023-12-20T12:04:37;3.50;;;1.40;;
9834;SDS011;69850;50.942;13.748;2023-12-20T12:07:58;4.38;;;1.40;;
9834;SDS011;69850;50.942;13.748;2023-12-20T12:11:19;4.82;;;1.27;;
9834;SDS011;69850;50.942;13.748;2023-12-20T12:14:39;3.60;;;1.45;;
9834;SDS011;69850;50.942;13.748;2023-12-20T12:18:03;4.35;;;1.38;;
9834;SDS011;69850;50.942;13.748;2023-12-20T12:21:24;2.47;;;0.80;;
9834;SDS011;69850;50.942;13.748;2023-12-20T12:24:47;6.40;;;1.30;;
9834;SDS011;69850;50.942;13.748;2023-12-20T12:28:08;3.33;;;1.58;;
9834;SDS011;69850;50.942;13.748;2023-12-20T12:31:28;4.03;;;1.27;;
9834;SDS011;69850;50.942;13.748;2023-12-20T12:34:50;4.97;;;1.23;;
9834;SDS011;69850;50.942;13.748;2023-12-20T12:38:11;3.60;;;1.30;;
9834;SDS011;69850;50.942;13.748;2023-12-20T12:41:31;6.13;;;1.45;;
9834;SDS011;69850;50.942;13.748;2023-12-20T12:44:52;5.00;;;1.60;;
9834;SDS011;69850;50.942;13.748;2023-12-20T12:48:13;4.20;;;0.93;;
9834;SDS011;69850;50.942;13.748;2023-12-20T12:51:33;4.35;;;1.48;;
9834;SDS011;69850;50.942;13.748;2023-12-20T12:54:54;4.10;;;1.50;;
9834;SDS011;69850;50.942;13.748;2023-12-20T12:58:14;4.72;;;1.40;;
9834;SDS011;69850;50.942;13.748;2023-12-20T13:01:35;5.57;;;1.50;;
9834;SDS011;69850;50.942;13.748;2023-12-20T13:04:56;3.85;;;1.15;;
9834;SDS011;69850;50.942;13.748;2023-12-20T13:08:16;4.43;;;1.50;;
9834;SDS011;69850;50.942;13.748;2023-12-20T13:11:37;4.75;;;1.50;;
9834;SDS011;69850;50.942;13.748;2023-12-20T13:14:58;3.35;;;0.77;;
9834;SDS011;69850;50.942;13.748;2023-12-20T13:18:18;5.03;;;1.55;;
9834;SDS011;69850;50.942;13.748;2023-12-20T13:21:39;7.00;;;1.40;;
9834;SDS011;69850;50.942;13.748;2023-12-20T13:25:00;5.43;;;1.40;;
9834;SDS011;69850;50.942;13.748;2023-12-20T13:28:22;5.32;;;1.45;;
9834;SDS011;69850;50.942;13.748;2023-12-20T13:31:43;3.90;;;1.40;;
9834;SDS011;69850;50.942;13.748;2023-12-20T13:35:03;3.97;;;1.27;;
9834;SDS011;69850;50.942;13.748;2023-12-20T13:38:24;5.32;;;1.55;;
9834;SDS011;69850;50.942;13.748;2023-12-20T13:41:45;3.95;;;1.42;;
9834;SDS011;69850;50.942;13.748;2023-12-20T13:45:06;5.47;;;1.70;;
9834;SDS011;69850;50.942;13.748;2023-12-20T13:48:27;4.00;;;1.50;;
9834;SDS011;69850;50.942;13.748;2023-12-20T13:51:48;3.28;;;1.70;;
9834;SDS011;69850;50.942;13.748;2023-12-20T13:55:09;4.50;;;1.45;;
9834;SDS011;69850;50.942;13.748;2023-12-20T13:58:29;8.40;;;2.33;;
9834;SDS011;69850;50.942;13.748;2023-12-20T14:01:51;3.92;;;1.67;;
9834;SDS011;69850;50.942;13.748;2023-12-20T14:05:11;3.80;;;1.40;;
9834;SDS011;69850;50.942;13.748;2023-12-20T14:08:33;4.80;;;1.80;;
9834;SDS011;69850;50.942;13.748;2023-12-20T14:11:54;3.47;;;1.40;;
9834;SDS011;69850;50.942;13.748;2023-12-20T14:15:15;3.35;;;1.40;;
9834;SDS011;69850;50.942;13.748;2023-12-20T14:18:35;2.75;;;1.52;;
9834;SDS011;69850;50.942;13.748;2023-12-20T14:21:56;4.10;;;1.58;;
9834;SDS011;69850;50.942;13.748;2023-12-20T14:25:21;6.47;;;1.40;;
9834;SDS011;69850;50.942;13.748;2023-12-20T14:28:43;2.67;;;1.50;;
9834;SDS011;69850;50.942;13.748;2023-12-20T14:32:04;5.30;;;2.05;;
9834;SDS011;69850;50.942;13.748;2023-12-20T14:35:26;2.80;;;1.67;;
9834;SDS011;69850;50.942;13.748;2023-12-20T14:38:46;3.42;;;1.40;;
9834;SDS011;69850;50.942;13.748;2023-12-20T14:42:08;4.72;;;1.40;;
9834;SDS011;69850;50.942;13.748;2023-12-20T14:45:33;2.60;;;1.40;;
9834;SDS011;69850;50.942;13.748;2023-12-20T14:48:53;0.95;;;0.88;;
9834;SDS011;69850;50.942;13.748;2023-12-20T14:52:14;8.32;;;1.77;;
9834;SDS011;69850;50.942;13.748;2023-12-20T14:55:34;4.13;;;1.35;;
9834;SDS011;69850;50.942;13.748;2023-12-20T14:58:55;3.05;;;1.40;;
9834;SDS011;69850;50.942;13.748;2023-12-20T15:02:16;1.75;;;1.00;;
9834;SDS011;69850;50.942;13.748;2023-12-20T15:05:36;3.60;;;1.10;;
9834;SDS011;69850;50.942;13.748;2023-12-20T15:08:57;5.72;;;1.40;;
9834;SDS011;69850;50.942;13.748;2023-12-20T15:12:18;4.22;;;1.10;;
9834;SDS011;69850;50.942;13.748;2023-12-20T15:15:39;4.05;;;1.30;;
9834;SDS011;69850;50.942;13.748;2023-12-20T15:18:59;2.22;;;1.50;;
9834;SDS011;69850;50.942;13.748;2023-12-20T15:22:20;3.88;;;1.50;;
9834;SDS011;69850;50.942;13.748;2023-12-20T15:25:41;8.00;;;1.58;;
9834;SDS011;69850;50.942;13.748;2023-12-20T15:29:01;1.55;;;1.20;;
9834;SDS011;69850;50.942;13.748;2023-12-20T15:32:22;3.75;;;1.20;;
9834;SDS011;69850;50.942;13.748;2023-12-20T15:35:43;5.45;;;1.58;;
9834;SDS011;69850;50.942;13.748;2023-12-20T15:39:03;4.00;;;1.25;;
9834;SDS011;69850;50.942;13.748;2023-12-20T15:42:24;5.25;;;1.40;;
9834;SDS011;69850;50.942;13.748;2023-12-20T15:45:45;5.22;;;1.48;;
9834;SDS011;69850;50.942;13.748;2023-12-20T15:49:06;2.88;;;1.33;;
9834;SDS011;69850;50.942;13.748;2023-12-20T15:52:27;2.45;;;1.30;;
9834;SDS011;69850;50.942;13.748;2023-12-20T15:55:48;3.65;;;1.17;;
9834;SDS011;69850;50.942;13.748;2023-12-20T15:59:08;5.03;;;1.90;;
9834;SDS011;69850;50.942;13.748;2023-12-20T16:02:30;2.97;;;0.98;;
9834;SDS011;69850;50.942;13.748;2023-12-20T16:05:51;2.90;;;1.40;;
9834;SDS011;69850;50.942;13.748;2023-12-20T16:09:13;2.25;;;1.20;;
9834;SDS011;69850;50.942;13.748;2023-12-20T16:12:33;4.63;;;1.45;;
9834;SDS011;69850;50.942;13.748;2023-12-20T16:15:54;2.35;;;1.35;;
9834;SDS011;69850;50.942;13.748;2023-12-20T16:19:15;3.63;;;1.30;;
9834;SDS011;69850;50.942;13.748;2023-12-20T16:22:35;2.40;;;1.25;;
9834;SDS011;69850;50.942;13.748;2023-12-20T16:25:57;4.18;;;1.58;;
9834;SDS011;69850;50.942;13.748;2023-12-20T16:29:18;3.67;;;1.40;;
9834;SDS011;69850;50.942;13.748;2023-12-20T16:32:39;3.72;;;1.60;;
9834;SDS011;69850;50.942;13.748;2023-12-20T16:36:01;2.65;;;1.20;;
9834;SDS011;69850;50.942;13.748;2023-12-20T16:39:22;4.35;;;1.45;;
9834;SDS011;69850;50.942;13.748;2023-12-20T16:42:43;3.28;;;1.30;;
9834;SDS011;69850;50.942;13.748;2023-12-20T16:46:04;2.50;;;1.17;;
9834;SDS011;69850;50.942;13.748;2023-12-20T16:49:25;2.42;;;1.35;;
9834;SDS011;69850;50.942;13.748;2023-12-20T16:52:45;4.43;;;1.30;;
9834;SDS011;69850;50.942;13.748;2023-12-20T16:56:10;3.13;;;1.50;;
9834;SDS011;69850;50.942;13.748;2023-12-20T16:59:31;3.95;;;1.88;;
9834;SDS011;69850;50.942;13.748;2023-12-20T17:02:52;3.30;;;1.40;;
9834;SDS011;69850;50.942;13.748;2023-12-20T17:06:12;4.00;;;1.45;;
9834;SDS011;69850;50.942;13.748;2023-12-20T17:09:33;6.30;;;1.23;;
9834;SDS011;69850;50.942;13.748;2023-12-20T17:12:53;2.45;;;1.58;;
9834;SDS011;69850;50.942;13.748;2023-12-20T17:16:14;4.45;;;1.40;;
9834;SDS011;69850;50.942;13.748;2023-12-20T17:19:35;4.18;;;1.23;;
9834;SDS011;69850;50.942;13.748;2023-12-20T17:22:55;2.10;;;0.90;;
9834;SDS011;69850;50.942;13.748;2023-12-20T17:26:16;3.47;;;1.48;;
9834;SDS011;69850;50.942;13.748;2023-12-20T17:29:36;2.40;;;1.30;;
9834;SDS011;69850;50.942;13.748;2023-12-20T17:32:57;2.85;;;1.55;;
9834;SDS011;69850;50.942;13.748;2023-12-20T17:36:18;3.08;;;1.90;;
9834;SDS011;69850;50.942;13.748;2023-12-20T17:39:40;4.68;;;1.52;;
9834;SDS011;69850;50.942;13.748;2023-12-20T17:43:00;3.28;;;1.80;;
9834;SDS011;69850;50.942;13.748;2023-12-20T17:46:21;3.33;;;1.52;;
9834;SDS011;69850;50.942;13.748;2023-12-20T17:49:41;2.25;;;1.50;;
9834;SDS011;69850;50.942;13.748;2023-12-20T17:53:02;3.63;;;1.40;;
9834;SDS011;69850;50.942;13.748;2023-12-20T17:56:23;3.83;;;1.48;;
9834;SDS011;69850;50.942;13.748;2023-12-20T17:59:44;4.07;;;1.50;;
9834;SDS011;69850;50.942;13.748;2023-12-20T18:03:04;4.32;;;1.77;;
9834;SDS011;69850;50.942;13.748;2023-12-20T18:06:25;5.35;;;1.90;;
9834;SDS011;69850;50.942;13.748;2023-12-20T18:09:46;2.60;;;1.70;;
9834;SDS011;69850;50.942;13.748;2023-12-20T18:13:06;5.22;;;1.67;;
9834;SDS011;69850;50.942;13.748;2023-12-20T18:16:27;4.28;;;1.60;;
9834;SDS011;69850;50.942;13.748;2023-12-20T18:19:47;3.17;;;1.80;;
9834;SDS011;69850;50.942;13.748;2023-12-20T18:23:08;2.97;;;1.73;;
9834;SDS011;69850;50.942;13.748;2023-12-20T18:26:29;3.80;;;1.80;;
9834;SDS011;69850;50.942;13.748;2023-12-20T18:29:55;5.32;;;1.95;;
9834;SDS011;69850;50.942;13.748;2023-12-20T18:33:16;4.13;;;1.98;;
9834;SDS011;69850;50.942;13.748;2023-12-20T18:36:36;4.15;;;1.88;;
9834;SDS011;69850;50.942;13.748;2023-12-20T18:39:59;5.20;;;2.03;;
9834;SDS011;69850;50.942;13.748;2023-12-20T18:43:19;5.50;;;2.10;;
9834;SDS011;69850;50.942;13.748;2023-12-20T18:46:41;4.88;;;2.25;;
9834;SDS011;69850;50.942;13.748;2023-12-20T18:50:04;3.45;;;2.33;;
9834;SDS011;69850;50.942;13.748;2023-12-20T18:53:27;4.65;;;2.08;;
9834;SDS011;69850;50.942;13.748;2023-12-20T18:56:48;7.38;;;2.10;;
9834;SDS011;69850;50.942;13.748;2023-12-20T19:00:09;3.92;;;2.10;;
9834;SDS011;69850;50.942;13.748;2023-12-20T19:03:31;5.40;;;2.22;;
9834;SDS011;69850;50.942;13.748;2023-12-20T19:06:53;3.70;;;2.15;;
9834;SDS011;69850;50.942;13.748;2023-12-20T19:10:17;5.10;;;2.10;;
9834;SDS011;69850;50.942;13.748;2023-12-20T19:13:38;5.75;;;2.08;;
9834;SDS011;69850;50.942;13.748;2023-12-20T19:16:59;2.90;;;2.13;;
9834;SDS011;69850;50.942;13.748;2023-12-20T19:20:21;5.35;;;2.42;;
9834;SDS011;69850;50.942;13.748;2023-12-20T19:23:42;5.20;;;2.10;;
9834;SDS011;69850;50.942;13.748;2023-12-20T19:27:03;4.80;;;2.20;;
9834;SDS011;69850;50.942;13.748;2023-12-20T19:30:24;5.55;;;2.10;;
9834;SDS011;69850;50.942;13.748;2023-12-20T19:33:44;3.83;;;2.20;;
9834;SDS011;69850;50.942;13.748;2023-12-20T19:37:10;3.58;;;2.00;;
9834;SDS011;69850;50.942;13.748;2023-12-20T19:40:31;5.55;;;1.98;;
9834;SDS011;69850;50.942;13.748;2023-12-20T19:43:51;3.97;;;2.40;;
9834;SDS011;69850;50.942;13.748;2023-12-20T19:47:13;4.78;;;2.20;;
9834;SDS011;69850;50.942;13.748;2023-12-20T19:50:33;3.55;;;2.03;;
9834;SDS011;69850;50.942;13.748;2023-12-20T19:53:54;2.83;;;1.83;;
9834;SDS011;69850;50.942;13.748;2023-12-20T19:57:15;7.57;;;2.35;;
9834;SDS011;69850;50.942;13.748;2023-12-20T20:00:35;4.68;;;2.00;;
9834;SDS011;69850;50.942;13.748;2023-12-20T20:03:57;2.65;;;2.00;;
9834;SDS011;69850;50.942;13.748;2023-12-20T20:07:18;2.78;;;1.75;;
9834;SDS011;69850;50.942;13.748;2023-12-20T20:10:43;2.38;;;1.90;;
9834;SDS011;69850;50.942;13.748;2023-12-20T20:14:03;3.67;;;1.60;;
9834;SDS011;69850;50.942;13.748;2023-12-20T20:17:24;2.53;;;1.52;;
9834;SDS011;69850;50.942;13.748;2023-12-20T20:20:45;2.35;;;1.48;;